Time;durP1;ratioP1;P1;durP2;ratioP2;P2;SDS_P1;SDS_P2;PMS_P1;PMS_P2;Temp;Humidity;BMP_temperature;BMP_pressure;BME280_temperature;BME280_humidity;BME280_pressure;Samples;Min_cycle;Max_cycle;Signal;HPM_P1;HPM_P2
2022/03/07 00:00:43;;;;;;;20.60;12.35;;;6.20;33.90;;;;;;4951531;28;20024;-75
2022/03/07 00:03:09;;;;;;;20.35;11.80;;;6.30;34.00;;;;;;4947005;28;20118;-78
2022/03/07 00:05:34;;;;;;;19.75;12.40;;;6.20;33.90;;;;;;4949929;28;20106;-77
2022/03/07 00:08:00;;;;;;;25.70;14.07;;;6.20;34.00;;;;;;4954710;28;20042;-76
2022/03/07 00:10:26;;;;;;;27.13;15.40;;;6.20;34.00;;;;;;4969467;28;20033;-75
2022/03/07 00:12:52;;;;;;;21.35;12.75;;;6.20;34.10;;;;;;4949953;28;20545;-75
2022/03/07 00:15:19;;;;;;;24.92;14.50;;;6.10;34.00;;;;;;4947454;28;20469;-75
2022/03/07 00:17:45;;;;;;;24.30;14.52;;;6.20;34.00;;;;;;4956769;28;20050;-75
2022/03/07 00:20:12;;;;;;;27.67;15.57;;;6.10;33.90;;;;;;4940751;28;20477;-76
2022/03/07 00:22:37;;;;;;;21.92;13.05;;;6.10;34.10;;;;;;4953924;28;20721;-76
2022/03/07 00:25:03;;;;;;;21.15;13.05;;;6.10;34.00;;;;;;4953984;28;20069;-77
2022/03/07 00:27:29;;;;;;;20.88;13.48;;;6.10;34.10;;;;;;4962283;28;20081;-76
2022/03/07 00:29:55;;;;;;;27.00;15.35;;;6.10;34.10;;;;;;4941251;28;20437;-78
2022/03/07 00:32:21;;;;;;;22.60;13.13;;;6.10;34.00;;;;;;4948993;28;20050;-78
2022/03/07 00:34:46;;;;;;;24.15;14.13;;;6.10;34.00;;;;;;4955909;28;20058;-77
2022/03/07 00:37:13;;;;;;;23.52;13.15;;;6.10;34.10;;;;;;4961551;28;20031;-76
2022/03/07 00:39:39;;;;;;;25.65;14.88;;;6.20;34.10;;;;;;4950391;28;20027;-77
2022/03/07 00:42:05;;;;;;;22.45;13.45;;;6.20;34.10;;;;;;4945738;28;20034;-80
2022/03/07 00:44:30;;;;;;;24.48;15.00;;;6.20;34.00;;;;;;4951771;28;20385;-76
2022/03/07 00:46:56;;;;;;;25.85;14.18;;;6.20;34.00;;;;;;4944501;28;20492;-74
2022/03/07 00:49:22;;;;;;;23.88;14.30;;;6.10;33.90;;;;;;4947332;28;20385;-76
2022/03/07 00:51:48;;;;;;;25.48;14.75;;;6.10;33.90;;;;;;4956155;28;20026;-74
2022/03/07 00:54:14;;;;;;;24.35;13.52;;;6.20;34.10;;;;;;4951225;28;20435;-75
2022/03/07 00:56:40;;;;;;;27.50;15.32;;;6.20;34.00;;;;;;4953209;28;20161;-76
2022/03/07 00:59:05;;;;;;;22.70;13.65;;;6.20;33.90;;;;;;4955587;28;20114;-76
2022/03/07 01:01:31;;;;;;;23.33;13.98;;;6.10;33.90;;;;;;4958679;28;20024;-77
2022/03/07 01:03:57;;;;;;;23.73;14.60;;;6.20;33.90;;;;;;4948496;28;20023;-80
2022/03/07 01:06:22;;;;;;;25.95;15.32;;;6.20;33.90;;;;;;4957309;28;20042;-77
2022/03/07 01:08:48;;;;;;;24.98;14.85;;;6.10;33.90;;;;;;4949307;28;20022;-78
2022/03/07 01:11:14;;;;;;;24.52;14.52;;;6.10;33.80;;;;;;4944508;28;20031;-78
2022/03/07 01:13:40;;;;;;;26.38;14.25;;;6.10;33.80;;;;;;4949033;28;20027;-77
2022/03/07 01:16:06;;;;;;;24.25;14.57;;;6.10;33.70;;;;;;4950293;28;20042;-78
2022/03/07 01:18:32;;;;;;;25.52;15.05;;;6.10;33.70;;;;;;4949973;28;20079;-75
2022/03/07 01:20:58;;;;;;;23.60;13.95;;;6.10;33.60;;;;;;4944195;28;20052;-78
2022/03/07 01:23:24;;;;;;;23.30;13.75;;;6.10;33.90;;;;;;4946897;28;20035;-76
2022/03/07 01:25:50;;;;;;;22.83;13.30;;;6.10;33.70;;;;;;4970077;28;20035;-76
2022/03/07 01:28:15;;;;;;;23.67;13.98;;;6.10;33.70;;;;;;4939401;28;20027;-78
2022/03/07 01:30:41;;;;;;;23.13;13.77;;;6.10;33.70;;;;;;4949442;28;20036;-76
2022/03/07 01:33:07;;;;;;;26.00;15.45;;;6.10;33.60;;;;;;4944527;28;20035;-77
2022/03/07 01:35:33;;;;;;;22.23;14.10;;;6.10;33.60;;;;;;4955189;28;20428;-75
2022/03/07 01:37:59;;;;;;;21.33;12.80;;;6.10;33.50;;;;;;4939412;28;20481;-74
2022/03/07 01:40:25;;;;;;;21.75;13.30;;;6.10;33.60;;;;;;4954800;28;20035;-75
2022/03/07 01:42:50;;;;;;;26.52;14.90;;;6.10;33.60;;;;;;4954916;28;20102;-76
2022/03/07 01:45:18;;;;;;;26.85;13.90;;;6.10;33.50;;;;;;4944842;28;20394;-77
2022/03/07 01:47:45;;;;;;;23.05;13.18;;;6.10;33.50;;;;;;4950459;28;20027;-75
2022/03/07 01:50:14;;;;;;;26.35;15.10;;;6.00;33.40;;;;;;4954200;28;20031;-78
2022/03/07 01:52:43;;;;;;;23.13;14.52;;;6.00;33.40;;;;;;4954431;28;20019;-77
2022/03/07 01:55:11;;;;;;;23.08;13.50;;;6.00;33.40;;;;;;4945787;28;20032;-77
2022/03/07 01:57:41;;;;;;;20.98;14.05;;;6.00;33.40;;;;;;4948415;28;20409;-75
2022/03/07 02:00:10;;;;;;;21.60;13.32;;;6.00;33.40;;;;;;4954293;28;20035;-76
2022/03/07 02:02:36;;;;;;;21.65;13.20;;;6.00;33.50;;;;;;4952622;28;20170;-77
2022/03/07 02:05:04;;;;;;;22.30;13.23;;;6.00;33.50;;;;;;4961313;28;20093;-77
2022/03/07 02:07:30;;;;;;;26.05;13.80;;;6.00;33.50;;;;;;4945812;28;20396;-77
2022/03/07 02:09:56;;;;;;;19.67;13.55;;;6.00;33.40;;;;;;4954209;28;20019;-77
2022/03/07 02:12:22;;;;;;;24.60;13.48;;;6.00;33.20;;;;;;4938624;28;20027;-77
2022/03/07 02:14:48;;;;;;;22.70;12.95;;;6.00;33.20;;;;;;4953444;28;20030;-75
2022/03/07 02:17:13;;;;;;;22.92;11.52;;;6.00;33.20;;;;;;4949473;28;20082;-75
2022/03/07 02:19:39;;;;;;;21.45;11.85;;;6.00;33.30;;;;;;4953649;28;20059;-74
2022/03/07 02:22:06;;;;;;;22.08;12.73;;;6.00;33.30;;;;;;4953405;28;20104;-77
2022/03/07 02:24:32;;;;;;;22.00;13.18;;;6.00;33.40;;;;;;4950363;28;20027;-75
2022/03/07 02:27:00;;;;;;;22.35;13.50;;;6.00;33.30;;;;;;4957052;28;20027;-74
2022/03/07 02:29:27;;;;;;;19.75;12.75;;;6.00;33.20;;;;;;4969353;28;20050;-77
2022/03/07 02:31:52;;;;;;;21.83;12.20;;;6.00;33.20;;;;;;4950271;28;20098;-77
2022/03/07 02:34:18;;;;;;;22.88;13.35;;;6.00;33.20;;;;;;4938370;28;20106;-74
2022/03/07 02:36:44;;;;;;;21.13;12.65;;;6.00;33.20;;;;;;4953807;28;20027;-77
2022/03/07 02:39:10;;;;;;;22.23;12.52;;;6.00;33.20;;;;;;4944878;28;20028;-76
2022/03/07 02:41:40;;;;;;;21.05;12.95;;;6.00;33.30;;;;;;4939754;28;20054;-78
2022/03/07 02:44:06;;;;;;;21.20;13.52;;;6.00;33.30;;;;;;4950671;28;20031;-78
2022/03/07 02:46:32;;;;;;;20.70;13.48;;;6.00;33.30;;;;;;4948878;28;20031;-77
2022/03/07 02:48:58;;;;;;;20.38;12.30;;;5.90;33.30;;;;;;4965249;28;20481;-77
2022/03/07 02:51:24;;;;;;;26.15;13.40;;;6.00;33.30;;;;;;4944044;28;20023;-74
2022/03/07 02:53:50;;;;;;;26.38;13.77;;;5.90;33.40;;;;;;4955131;28;20400;-77
2022/03/07 02:56:16;;;;;;;21.35;13.85;;;5.90;33.50;;;;;;4954818;28;20114;-74
2022/03/07 02:58:42;;;;;;;26.45;13.88;;;5.90;33.50;;;;;;4953739;28;20122;-78
2022/03/07 03:01:08;;;;;;;21.98;13.55;;;5.90;33.50;;;;;;4968320;28;20039;-77
2022/03/07 03:03:34;;;;;;;28.15;14.57;;;5.90;33.80;;;;;;4959850;28;20034;-75
2022/03/07 03:06:00;;;;;;;20.25;12.25;;;5.90;33.80;;;;;;4965012;28;20039;-73
2022/03/07 03:08:26;;;;;;;24.23;13.18;;;5.90;33.80;;;;;;4954975;28;20038;-77
2022/03/07 03:10:54;;;;;;;29.67;14.38;;;5.90;33.80;;;;;;4955401;28;20019;-76
2022/03/07 03:13:22;;;;;;;24.48;14.13;;;5.90;33.90;;;;;;4947699;28;20028;-74
2022/03/07 03:15:49;;;;;;;25.45;14.55;;;5.80;34.20;;;;;;4970253;28;20101;-79
2022/03/07 03:18:15;;;;;;;28.15;14.43;;;5.80;34.50;;;;;;4955315;28;20031;-77
2022/03/07 03:20:42;;;;;;;25.65;14.45;;;5.80;34.60;;;;;;4943958;29;20496;-78
2022/03/07 03:23:08;;;;;;;23.63;14.05;;;5.80;34.70;;;;;;4948504;28;20031;-76
2022/03/07 03:25:34;;;;;;;27.50;15.05;;;5.70;34.90;;;;;;4965363;28;20019;-76
2022/03/07 03:28:00;;;;;;;24.75;14.40;;;5.70;35.00;;;;;;4957440;28;20098;-76
2022/03/07 03:30:25;;;;;;;21.80;13.93;;;5.70;35.10;;;;;;4947782;28;20020;-77
2022/03/07 03:32:51;;;;;;;26.00;14.60;;;5.70;35.10;;;;;;4945138;28;20572;-76
2022/03/07 03:35:17;;;;;;;20.50;12.95;;;5.70;35.40;;;;;;4949978;28;20065;-78
2022/03/07 03:37:43;;;;;;;23.23;14.27;;;5.70;35.50;;;;;;4957379;28;20477;-74
2022/03/07 03:40:11;;;;;;;23.02;13.55;;;5.70;35.60;;;;;;4948435;28;20036;-76
2022/03/07 03:42:37;;;;;;;20.98;12.38;;;5.70;35.80;;;;;;4953060;28;20031;-79
2022/03/07 03:45:05;;;;;;;18.52;11.27;;;5.70;36.40;;;;;;4950033;28;20056;-78
2022/03/07 03:47:32;;;;;;;22.58;14.32;;;5.70;35.80;;;;;;4955204;28;20103;-74
2022/03/07 03:49:58;;;;;;;27.92;16.00;;;5.70;36.10;;;;;;4955403;28;20018;-75
2022/03/07 03:52:24;;;;;;;25.38;15.20;;;5.60;36.80;;;;;;4955380;28;20016;-75
2022/03/07 03:54:50;;;;;;;24.52;15.43;;;5.60;37.10;;;;;;4955489;28;20484;-74
2022/03/07 03:57:16;;;;;;;23.48;14.20;;;5.60;37.30;;;;;;4954947;28;20040;-78
2022/03/07 03:59:42;;;;;;;25.42;15.00;;;5.60;37.40;;;;;;4954630;28;22415;-78
2022/03/07 04:02:07;;;;;;;20.83;13.73;;;5.60;37.40;;;;;;4954198;28;20065;-78
2022/03/07 04:04:33;;;;;;;30.25;17.00;;;5.60;37.60;;;;;;4951048;28;20027;-73
2022/03/07 04:06:59;;;;;;;27.30;16.85;;;5.60;37.90;;;;;;4953782;28;20020;-78
2022/03/07 04:09:25;;;;;;;26.67;17.25;;;5.50;37.90;;;;;;4954212;28;20043;-77
2022/03/07 04:11:51;;;;;;;22.90;15.02;;;5.50;38.30;;;;;;4954223;28;20477;-74
2022/03/07 04:14:17;;;;;;;21.20;13.63;;;5.50;38.80;;;;;;4955412;28;20024;-76
2022/03/07 04:16:43;;;;;;;22.90;14.52;;;5.50;38.00;;;;;;4948399;28;20035;-74
2022/03/07 04:19:11;;;;;;;23.45;14.82;;;5.50;38.10;;;;;;4945289;28;20464;-74
2022/03/07 04:21:39;;;;;;;23.02;15.35;;;5.50;38.30;;;;;;4957563;28;20028;-75
2022/03/07 04:24:08;;;;;;;28.13;14.27;;;5.50;38.40;;;;;;4951720;28;20041;-76
2022/03/07 04:26:34;;;;;;;25.42;13.18;;;5.50;38.10;;;;;;4951917;28;20114;-75
2022/03/07 04:29:00;;;;;;;20.90;13.32;;;5.50;37.90;;;;;;4954587;28;20106;-75
2022/03/07 04:31:26;;;;;;;25.83;15.00;;;5.40;38.00;;;;;;4950970;28;20023;-76
2022/03/07 04:33:52;;;;;;;23.13;14.52;;;5.40;38.20;;;;;;4969017;28;20389;-76
2022/03/07 04:36:19;;;;;;;20.27;14.27;;;5.40;38.10;;;;;;4954819;28;20035;-77
2022/03/07 04:38:45;;;;;;;22.75;14.18;;;5.40;38.20;;;;;;4964313;28;20474;-75
2022/03/07 04:41:11;;;;;;;19.17;11.95;;;5.40;38.10;;;;;;4945252;28;20437;-76
2022/03/07 04:43:37;;;;;;;21.60;14.57;;;5.40;37.90;;;;;;4954750;28;20023;-74
2022/03/07 04:46:04;;;;;;;20.05;13.77;;;5.30;38.00;;;;;;4954344;28;20035;-76
2022/03/07 04:48:30;;;;;;;19.08;12.43;;;5.30;37.90;;;;;;4954576;28;20031;-75
2022/03/07 04:50:56;;;;;;;20.83;12.45;;;5.30;37.80;;;;;;4947528;28;20023;-74
2022/03/07 04:53:22;;;;;;;19.75;13.48;;;5.30;37.70;;;;;;4942524;28;20024;-73
2022/03/07 04:55:48;;;;;;;19.88;13.82;;;5.30;37.80;;;;;;4949893;28;20074;-75
2022/03/07 04:58:13;;;;;;;28.20;15.98;;;5.30;37.90;;;;;;4902205;28;1231273;-75
2022/03/07 05:00:39;;;;;;;28.80;15.93;;;5.20;37.90;;;;;;4955761;28;20027;-76
2022/03/07 05:03:05;;;;;;;25.75;15.30;;;5.20;37.90;;;;;;4947061;28;20385;-74
2022/03/07 05:05:31;;;;;;;25.92;15.35;;;5.20;37.80;;;;;;4948219;28;20031;-74
2022/03/07 05:07:57;;;;;;;21.75;14.38;;;5.20;37.90;;;;;;4945964;28;20039;-76
2022/03/07 05:10:22;;;;;;;23.80;14.63;;;5.20;37.90;;;;;;4939857;28;20388;-75
2022/03/07 05:12:48;;;;;;;24.38;13.55;;;5.20;38.20;;;;;;4955184;28;20030;-73
2022/03/07 05:15:15;;;;;;;23.58;14.30;;;5.20;38.20;;;;;;4945708;28;20058;-77
2022/03/07 05:17:54;;;;;;;27.27;15.68;;;5.20;38.30;;;;;;4963936;28;20481;-76
2022/03/07 05:20:21;;;;;;;24.05;14.50;;;5.10;38.10;;;;;;4952685;28;20029;-74
2022/03/07 05:22:47;;;;;;;25.08;15.00;;;5.20;38.10;;;;;;4941260;28;20473;-73
2022/03/07 05:25:15;;;;;;;25.92;14.65;;;5.20;38.10;;;;;;4945888;28;20028;-75
2022/03/07 05:27:41;;;;;;;23.05;15.07;;;5.20;38.20;;;;;;4948468;28;20380;-76
2022/03/07 05:30:09;;;;;;;19.52;13.75;;;5.20;38.00;;;;;;4954215;28;20028;-74
2022/03/07 05:32:35;;;;;;;26.80;16.17;;;5.20;38.00;;;;;;4955557;28;20030;-74
2022/03/07 05:35:01;;;;;;;21.83;14.77;;;5.20;38.10;;;;;;4947345;28;20028;-76
2022/03/07 05:37:27;;;;;;;26.20;16.25;;;5.20;38.00;;;;;;4962585;28;20118;-77
2022/03/07 05:39:52;;;;;;;26.67;16.38;;;5.20;37.90;;;;;;4955304;28;20115;-74
2022/03/07 05:42:18;;;;;;;24.00;14.50;;;5.20;37.90;;;;;;4947821;28;20485;-77
2022/03/07 05:44:44;;;;;;;24.17;13.45;;;5.20;37.80;;;;;;4954773;28;20027;-77
2022/03/07 05:47:10;;;;;;;37.08;15.15;;;5.20;37.80;;;;;;4945691;28;20062;-75
2022/03/07 05:49:36;;;;;;;21.48;14.13;;;5.30;38.00;;;;;;4948710;28;20027;-73
2022/03/07 05:52:03;;;;;;;28.55;16.75;;;5.30;38.00;;;;;;4939245;28;20020;-75
2022/03/07 05:54:28;;;;;;;28.50;16.80;;;5.30;38.60;;;;;;4968829;28;20019;-73
2022/03/07 05:56:54;;;;;;;26.95;17.13;;;5.20;38.00;;;;;;4951693;28;20436;-73
2022/03/07 05:59:20;;;;;;;26.20;16.80;;;5.20;38.00;;;;;;4954868;28;20456;-76
2022/03/07 06:01:46;;;;;;;24.60;14.98;;;5.20;38.00;;;;;;4954885;28;20114;-74
2022/03/07 06:04:11;;;;;;;27.40;17.13;;;5.20;38.00;;;;;;4938970;28;20508;-74
2022/03/07 06:06:37;;;;;;;24.38;15.05;;;5.20;38.20;;;;;;4950828;28;20020;-77
2022/03/07 06:09:03;;;;;;;26.63;17.60;;;5.20;38.20;;;;;;4946665;28;20081;-74
2022/03/07 06:11:29;;;;;;;24.58;16.20;;;5.30;38.30;;;;;;4945901;28;20094;-76
2022/03/07 06:13:55;;;;;;;26.33;16.73;;;5.20;38.20;;;;;;4954808;28;20035;-75
2022/03/07 06:16:21;;;;;;;26.73;15.75;;;5.20;38.10;;;;;;4938376;28;20446;-78
2022/03/07 06:18:46;;;;;;;28.73;17.10;;;5.20;38.00;;;;;;4954524;28;20035;-76
2022/03/07 06:21:12;;;;;;;35.58;18.48;;;5.30;38.10;;;;;;4973529;28;20034;-79
2022/03/07 06:23:38;;;;;;;30.65;17.35;;;5.30;38.10;;;;;;4960989;28;20019;-74
2022/03/07 06:26:07;;;;;;;23.02;14.32;;;5.30;38.10;;;;;;4938462;28;20516;-75
2022/03/07 06:28:33;;;;;;;23.88;16.17;;;5.40;38.10;;;;;;4954564;28;20019;-77
2022/03/07 06:30:59;;;;;;;25.00;16.77;;;5.40;37.90;;;;;;4954513;28;20031;-74
2022/03/07 06:33:25;;;;;;;25.27;16.05;;;5.40;37.70;;;;;;4954283;28;20026;-74
2022/03/07 06:35:51;;;;;;;27.42;15.85;;;5.50;37.60;;;;;;4955693;28;20023;-77
2022/03/07 06:38:19;;;;;;;23.33;15.50;;;5.50;37.30;;;;;;4972767;28;20027;-73
2022/03/07 06:40:45;;;;;;;25.15;16.52;;;5.50;37.20;;;;;;4959464;28;20030;-75
2022/03/07 06:43:11;;;;;;;26.80;16.23;;;5.60;37.00;;;;;;4958847;28;20552;-74
2022/03/07 06:45:37;;;;;;;26.83;15.48;;;5.60;36.70;;;;;;4958793;28;20054;-75
2022/03/07 06:48:03;;;;;;;23.98;14.93;;;5.60;36.80;;;;;;4955752;28;20098;-78
2022/03/07 06:50:29;;;;;;;27.75;16.25;;;5.70;36.80;;;;;;4954575;28;20136;-76
2022/03/07 06:52:55;;;;;;;27.63;16.45;;;5.70;36.80;;;;;;4954464;28;20015;-79
2022/03/07 06:55:21;;;;;;;31.38;15.57;;;5.80;36.70;;;;;;4954378;28;20046;-73
2022/03/07 06:57:47;;;;;;;23.15;16.13;;;5.90;36.50;;;;;;4954015;28;20079;-79
2022/03/07 07:00:15;;;;;;;24.35;14.35;;;5.90;36.10;;;;;;4953213;28;20027;-76
2022/03/07 07:02:41;;;;;;;23.23;15.93;;;5.90;36.00;;;;;;4953881;28;20031;-77
2022/03/07 07:05:08;;;;;;;27.92;15.68;;;6.00;36.60;;;;;;4954135;28;20039;-76
2022/03/07 07:07:35;;;;;;;26.48;16.63;;;6.00;35.90;;;;;;4953946;28;20114;-77
2022/03/07 07:10:02;;;;;;;24.10;15.27;;;6.10;35.60;;;;;;4954152;28;20020;-78
2022/03/07 07:12:28;;;;;;;30.55;16.42;;;6.10;35.40;;;;;;4954470;28;20027;-77
2022/03/07 07:14:54;;;;;;;27.23;16.67;;;6.10;35.10;;;;;;4954177;28;20024;-74
2022/03/07 07:17:20;;;;;;;26.63;14.07;;;6.20;34.90;;;;;;4954487;28;20023;-75
2022/03/07 07:19:45;;;;;;;27.52;15.82;;;6.20;35.00;;;;;;4953707;28;20059;-76
2022/03/07 07:22:11;;;;;;;24.73;15.60;;;6.20;34.90;;;;;;4954268;28;20035;-72
2022/03/07 07:24:37;;;;;;;28.65;16.20;;;6.20;34.90;;;;;;4954038;28;20041;-78
2022/03/07 07:27:03;;;;;;;23.27;14.93;;;6.20;34.50;;;;;;4953741;28;20024;-77
2022/03/07 07:29:30;;;;;;;22.75;16.30;;;6.20;34.20;;;;;;4969142;28;20023;-75
2022/03/07 07:31:56;;;;;;;24.00;15.82;;;6.20;34.10;;;;;;4968938;28;20485;-74
2022/03/07 07:34:22;;;;;;;21.65;15.30;;;6.20;33.70;;;;;;4954014;28;20051;-79
2022/03/07 07:36:49;;;;;;;22.65;14.77;;;6.20;33.20;;;;;;4954042;28;20061;-77
2022/03/07 07:39:15;;;;;;;21.75;13.45;;;6.20;33.20;;;;;;4952556;28;20031;-78
2022/03/07 07:41:41;;;;;;;26.70;14.02;;;6.20;33.10;;;;;;4953943;28;20031;-75
2022/03/07 07:44:07;;;;;;;32.05;14.68;;;6.20;33.10;;;;;;4954201;28;20541;-78
2022/03/07 07:46:33;;;;;;;20.27;14.13;;;6.20;32.80;;;;;;4954067;28;20114;-77
2022/03/07 07:48:59;;;;;;;20.90;13.38;;;6.20;32.50;;;;;;4953665;28;20055;-75
2022/03/07 07:51:25;;;;;;;17.80;12.25;;;6.30;32.40;;;;;;4955941;28;20051;-75
2022/03/07 07:53:51;;;;;;;22.52;13.20;;;6.40;31.60;;;;;;4957349;28;20422;-76
2022/03/07 07:56:17;;;;;;;22.02;12.13;;;6.30;30.90;;;;;;4972343;28;20036;-75
2022/03/07 07:58:43;;;;;;;20.13;12.63;;;6.40;30.90;;;;;;4971000;28;20051;-76
2022/03/07 08:01:08;;;;;;;17.17;11.50;;;6.40;31.00;;;;;;4957093;28;20031;-76
2022/03/07 08:03:34;;;;;;;22.23;12.57;;;6.50;30.90;;;;;;4956418;28;20031;-75
2022/03/07 08:06:00;;;;;;;16.17;11.45;;;6.50;30.70;;;;;;4956550;28;20058;-74
2022/03/07 08:08:26;;;;;;;20.63;11.48;;;6.50;30.40;;;;;;4972001;28;20027;-74
2022/03/07 08:10:52;;;;;;;20.05;11.68;;;6.60;30.40;;;;;;4961243;28;20055;-77
2022/03/07 08:13:18;;;;;;;17.50;11.25;;;6.60;30.50;;;;;;4958001;28;20031;-75
2022/03/07 08:15:44;;;;;;;18.20;12.68;;;6.70;30.60;;;;;;4956842;28;20019;-74
2022/03/07 08:18:10;;;;;;;20.83;12.43;;;6.80;30.00;;;;;;4956886;28;20063;-76
2022/03/07 08:20:36;;;;;;;19.58;11.80;;;6.80;29.90;;;;;;4957022;28;20405;-74
2022/03/07 08:23:04;;;;;;;16.60;11.18;;;6.80;29.80;;;;;;4956628;28;20131;-76
2022/03/07 08:25:30;;;;;;;20.30;13.00;;;6.80;29.40;;;;;;4956851;28;20035;-76
2022/03/07 08:27:56;;;;;;;20.88;12.57;;;6.80;29.10;;;;;;4956544;28;20114;-75
2022/03/07 08:30:24;;;;;;;21.45;12.82;;;6.80;29.00;;;;;;4955219;28;20119;-76
2022/03/07 08:32:50;;;;;;;21.50;12.07;;;6.80;28.90;;;;;;4959804;28;20023;-76
2022/03/07 08:35:16;;;;;;;22.48;11.05;;;6.80;29.20;;;;;;4968036;28;20027;-72
2022/03/07 08:37:45;;;;;;;15.50;10.57;;;6.80;29.50;;;;;;4967336;28;20027;-77
2022/03/07 08:40:13;;;;;;;27.05;13.30;;;6.90;29.60;;;;;;4972738;28;20543;-74
2022/03/07 08:42:39;;;;;;;17.58;11.98;;;6.90;29.30;;;;;;4967796;28;20027;-77
2022/03/07 08:45:06;;;;;;;20.60;13.63;;;6.90;29.60;;;;;;4956531;28;20035;-78
2022/03/07 08:47:33;;;;;;;24.63;13.73;;;6.90;29.50;;;;;;4967327;28;20038;-77
2022/03/07 08:49:58;;;;;;;20.77;12.93;;;7.00;29.80;;;;;;4968716;28;20026;-78
2022/03/07 08:52:24;;;;;;;18.85;12.68;;;7.00;29.30;;;;;;4975680;28;20071;-77
2022/03/07 08:54:50;;;;;;;18.70;13.27;;;7.00;28.90;;;;;;4975702;28;20106;-76
2022/03/07 08:57:16;;;;;;;24.13;14.13;;;7.00;29.00;;;;;;4975394;28;20437;-74
2022/03/07 08:59:42;;;;;;;21.25;13.52;;;7.10;29.20;;;;;;4964399;28;20059;-76
2022/03/07 09:02:09;;;;;;;25.45;14.07;;;7.10;29.30;;;;;;4969097;28;20027;-75
2022/03/07 09:04:36;;;;;;;19.08;12.65;;;7.10;28.90;;;;;;4961662;28;20023;-76
2022/03/07 09:07:03;;;;;;;24.95;14.98;;;7.10;28.90;;;;;;4975422;28;20026;-74
2022/03/07 09:09:29;;;;;;;18.80;12.60;;;7.10;28.80;;;;;;4975426;28;20018;-77
2022/03/07 09:11:55;;;;;;;23.50;13.68;;;7.20;29.00;;;;;;4975267;28;20030;-77
2022/03/07 09:14:21;;;;;;;20.00;13.20;;;7.20;28.80;;;;;;4990266;28;20113;-75
2022/03/07 09:16:46;;;;;;;18.52;13.32;;;7.20;28.50;;;;;;4953542;28;20027;-74
2022/03/07 09:19:12;;;;;;;23.38;14.73;;;7.20;28.50;;;;;;4955142;28;20039;-77
2022/03/07 09:21:38;;;;;;;21.88;14.27;;;7.20;28.80;;;;;;4955138;28;20028;-76
2022/03/07 09:24:05;;;;;;;18.35;12.80;;;7.20;28.90;;;;;;4954776;28;20027;-74
2022/03/07 09:26:30;;;;;;;23.25;13.60;;;7.30;29.00;;;;;;4959719;28;20465;-75
2022/03/07 09:28:56;;;;;;;20.30;13.52;;;7.40;29.00;;;;;;4967339;28;20029;-76
2022/03/07 09:31:22;;;;;;;24.70;14.73;;;7.40;28.90;;;;;;4962360;28;20118;-76
2022/03/07 09:33:48;;;;;;;21.13;13.52;;;7.50;28.50;;;;;;4974923;28;20563;-74
2022/03/07 09:36:14;;;;;;;19.77;13.27;;;7.50;28.60;;;;;;4965354;28;20058;-77
2022/03/07 09:38:40;;;;;;;26.85;13.32;;;7.60;28.70;;;;;;4955664;28;20078;-78
2022/03/07 09:41:06;;;;;;;21.83;13.68;;;7.70;28.90;;;;;;4955409;28;20023;-77
2022/03/07 09:43:32;;;;;;;21.50;13.43;;;7.80;28.40;;;;;;4955647;28;20384;-74
2022/03/07 09:45:58;;;;;;;24.58;13.35;;;7.90;28.90;;;;;;4955691;28;20107;-74
2022/03/07 09:48:25;;;;;;;24.33;12.48;;;8.00;28.30;;;;;;4965011;28;20035;-77
2022/03/07 09:50:52;;;;;;;22.00;13.23;;;8.10;28.30;;;;;;4963679;28;20023;-78
2022/03/07 09:53:19;;;;;;;23.08;14.35;;;8.20;27.90;;;;;;4954995;28;20030;-76
2022/03/07 09:55:46;;;;;;;25.52;14.80;;;8.30;27.50;;;;;;4955114;28;20030;-76
2022/03/07 09:58:13;;;;;;;17.65;12.40;;;8.40;27.60;;;;;;4953628;28;20050;-77
2022/03/07 10:00:41;;;;;;;17.92;12.00;;;8.50;27.60;;;;;;4968455;28;20039;-75
2022/03/07 10:03:11;;;;;;;21.20;12.73;;;8.60;28.20;;;;;;4955002;28;20019;-75
2022/03/07 10:05:46;;;;;;;17.80;12.10;;;8.70;27.60;;;;;;4954992;28;20042;-77
2022/03/07 10:08:22;;;;;;;17.77;11.65;;;8.90;27.50;;;;;;4954993;28;20106;-77
2022/03/07 10:10:50;;;;;;;21.73;13.07;;;9.10;27.70;;;;;;4955128;28;20024;-76
2022/03/07 10:13:16;;;;;;;21.75;13.85;;;9.30;27.60;;;;;;4969531;28;20159;-76
2022/03/07 10:15:42;;;;;;;20.33;12.52;;;9.40;27.00;;;;;;4965588;28;20114;-74
2022/03/07 10:18:16;;;;;;;23.80;12.98;;;9.50;27.00;;;;;;4953802;28;20035;-77
2022/03/07 10:20:49;;;;;;;22.75;14.43;;;9.60;27.50;;;;;;4947928;28;20050;-78
2022/03/07 10:23:15;;;;;;;30.58;15.20;;;9.70;26.70;;;;;;4935738;28;20063;-76
2022/03/07 10:25:43;;;;;;;20.20;13.02;;;9.80;26.50;;;;;;4949756;28;20500;-76
2022/03/07 10:28:09;;;;;;;20.30;13.00;;;9.90;26.50;;;;;;4950716;28;20147;-78
2022/03/07 10:30:37;;;;;;;21.17;12.55;;;10.00;26.70;;;;;;4954373;28;20106;-77
2022/03/07 10:33:09;;;;;;;19.17;13.20;;;10.10;26.50;;;;;;4951051;28;20037;-75
2022/03/07 10:35:49;;;;;;;19.63;12.25;;;10.10;25.80;;;;;;4957633;28;20033;-74
2022/03/07 10:38:28;;;;;;;15.40;11.63;;;10.20;25.90;;;;;;4949907;28;20121;-75
2022/03/07 10:40:55;;;;;;;17.05;11.75;;;10.20;25.90;;;;;;4948930;28;20039;-77
2022/03/07 10:43:22;;;;;;;16.77;11.32;;;10.30;26.20;;;;;;4959504;28;20030;-76
2022/03/07 10:45:51;;;;;;;17.42;11.20;;;10.40;26.20;;;;;;4957102;28;20034;-75
2022/03/07 10:48:19;;;;;;;16.38;12.43;;;10.50;26.00;;;;;;4942244;28;20026;-75
2022/03/07 10:50:49;;;;;;;16.35;11.77;;;10.50;25.80;;;;;;4952436;28;20027;-73
2022/03/07 10:53:16;;;;;;;17.02;12.50;;;10.60;25.70;;;;;;4958214;28;20050;-74
2022/03/07 10:55:51;;;;;;;23.52;13.57;;;10.60;25.60;;;;;;4957748;28;20445;-77
2022/03/07 10:58:17;;;;;;;18.45;12.23;;;10.50;25.30;;;;;;4938296;28;20062;-78
2022/03/07 11:00:59;;;;;;;18.73;12.90;;;10.50;25.40;;;;;;4942478;28;20447;-75
2022/03/07 11:03:29;;;;;;;17.73;11.88;;;10.40;25.30;;;;;;4941969;28;20118;-78
2022/03/07 11:05:56;;;;;;;16.10;11.65;;;10.30;25.40;;;;;;4958680;28;20377;-75
2022/03/07 11:08:22;;;;;;;18.30;12.95;;;10.20;25.30;;;;;;4944892;28;20036;-77
2022/03/07 11:10:52;;;;;;;18.15;12.73;;;10.10;25.10;;;;;;4943094;28;20485;-77
2022/03/07 11:13:19;;;;;;;19.60;12.52;;;10.00;25.20;;;;;;4939014;28;20032;-75
2022/03/07 11:15:47;;;;;;;16.05;11.98;;;9.80;25.10;;;;;;4947453;28;20094;-74
2022/03/07 11:18:15;;;;;;;20.73;12.35;;;9.70;25.40;;;;;;4951068;28;20075;-74
2022/03/07 11:20:42;;;;;;;20.75;12.95;;;9.60;25.60;;;;;;4961647;28;20106;-74
2022/03/07 11:23:12;;;;;;;20.55;12.40;;;9.50;25.40;;;;;;4946533;28;20042;-74
2022/03/07 11:25:39;;;;;;;18.70;12.93;;;9.40;25.50;;;;;;4951784;28;20046;-75
2022/03/07 11:28:06;;;;;;;17.73;11.90;;;9.40;25.70;;;;;;4964296;28;20094;-77
2022/03/07 11:30:36;;;;;;;16.23;12.20;;;9.40;25.80;;;;;;4975134;28;20034;-76
2022/03/07 11:33:36;;;;;;;19.58;12.10;;;9.30;25.60;;;;;;4960784;28;20031;-73
2022/03/07 11:36:05;;;;;;;21.02;13.93;;;9.20;25.70;;;;;;4975964;28;20430;-77
2022/03/07 11:38:33;;;;;;;19.98;13.13;;;9.10;25.50;;;;;;4948051;28;20074;-76
2022/03/07 11:41:11;;;;;;;20.20;11.63;;;9.10;25.50;;;;;;4965275;28;20023;-74
2022/03/07 11:43:56;;;;;;;19.83;13.30;;;9.00;25.30;;;;;;4976787;28;20031;-76
2022/03/07 11:46:32;;;;;;;19.30;13.52;;;8.90;25.30;;;;;;4971295;28;20055;-77
2022/03/07 11:48:59;;;;;;;19.38;11.80;;;8.90;25.50;;;;;;4955801;28;20122;-74
2022/03/07 11:51:29;;;;;;;19.65;13.30;;;8.90;25.60;;;;;;4973904;28;20023;-71
2022/03/07 11:53:57;;;;;;;13.48;10.30;;;8.80;25.40;;;;;;4976221;28;20035;-74
2022/03/07 11:56:25;;;;;;;19.85;12.20;;;8.90;25.70;;;;;;4956503;28;20023;-75
2022/03/07 11:58:54;;;;;;;16.77;11.23;;;9.00;25.70;;;;;;4951539;28;20043;-77
2022/03/07 12:01:22;;;;;;;19.92;12.93;;;9.00;25.80;;;;;;4950473;28;20031;-76
2022/03/07 12:03:48;;;;;;;15.43;11.45;;;9.10;25.40;;;;;;4944501;28;20102;-76
2022/03/07 12:06:16;;;;;;;17.27;12.27;;;9.10;25.60;;;;;;4946912;28;20027;-77
2022/03/07 12:08:53;;;;;;;17.70;12.30;;;9.10;25.50;;;;;;4942213;28;20038;-75
2022/03/07 12:11:31;;;;;;;23.20;13.35;;;9.10;25.50;;;;;;4953495;28;20114;-76
2022/03/07 12:14:02;;;;;;;19.10;12.50;;;9.10;25.10;;;;;;4943397;28;20052;-80
2022/03/07 12:16:32;;;;;;;17.52;11.48;;;9.10;25.40;;;;;;4950500;28;20106;-86
2022/03/07 12:19:11;;;;;;;18.15;11.73;;;9.10;25.50;;;;;;4943839;28;20478;-77
2022/03/07 12:21:43;;;;;;;25.42;13.32;;;9.10;25.50;;;;;;4958126;28;20035;-81
2022/03/07 12:24:14;;;;;;;20.23;13.10;;;9.00;25.20;;;;;;4956464;28;20490;-81
2022/03/07 12:26:50;;;;;;;17.65;12.10;;;9.00;25.70;;;;;;4941507;29;20053;-78
2022/03/07 12:29:18;;;;;;;18.15;13.13;;;8.90;25.40;;;;;;4956941;28;20386;-75
2022/03/07 12:32:03;;;;;;;24.02;13.45;;;9.00;25.50;;;;;;4944821;28;20541;-78
2022/03/07 12:34:34;;;;;;;19.10;12.30;;;8.90;25.20;;;;;;4972547;28;20019;-79